LICR/REG METAR and TAF weather

Enter ICAO airport designator
Station Type Date Time Source
LICR METAR 2019/04/25 07:50 UTC NOAA

LICR 250750Z 21006KT 7000 NSC 19/15 Q1018


Station Type Date Time Source
LICR Decoded METAR 2019/04/25 07:50 UTC NOAA

Reggio Calabria, Italy (LICR) 38-04N 015-39E 21M
Apr 25, 2019 - 03:50 AM EDT / 2019.04.25 0750 UTC
Wind: from the SSW (210 degrees) at 7 MPH (6 KT):0
Visibility: 4 mile(s):0
Temperature: 66 F (19 C)
Dew Point: 59 F (15 C)
Relative Humidity: 77%
Pressure (altimeter): 30.06 in. Hg (1018 hPa)
ob: LICR 250750Z 21006KT 7000 NSC 19/15 Q1018
cycle: 8

Station Type Date Time Source
LICR TAF 2019/04/25 06:21 UTC NOAA

TAF LICR 250500Z 2506/2606 VRB05KT 7000 SCT020
TEMPO 2506/2510 3000 RA
BECMG 2507/2509 18010KT
BECMG 2518/2520 VRB05KT

Example: see airport list